Time;durP1;ratioP1;P1;durP2;ratioP2;P2;SDS_P1;SDS_P2;PMS_P1;PMS_P2;Temp;Humidity;BMP_temperature;BMP_pressure;BME280_temperature;BME280_humidity;BME280_pressure;Samples;Min_cycle;Max_cycle;Signal;HPM_P1;HPM_P2
2021/11/17 02:28:20;;;;;;;50.40;31.75;;;;;;;11.60;74.57;101559.03;4955614;28;20054;-59
2021/11/17 02:31:32;;;;;;;48.72;30.02;;;;;;;11.58;74.45;101560.88;4955681;28;20488;-59
2021/11/17 02:34:53;;;;;;;50.00;31.15;;;;;;;11.57;74.64;101551.28;4948586;28;20477;-59
2021/11/17 02:37:40;;;;;;;52.47;31.60;;;;;;;11.59;74.62;101554.69;4957054;28;20051;-62
2021/11/17 02:40:32;;;;;;;52.33;31.90;;;;;;;11.60;74.67;101555.53;4956798;28;20099;-58
2021/11/17 02:43:11;;;;;;;54.33;32.35;;;;;;;11.59;74.60;101552.06;4956958;28;20047;-61
2021/11/17 02:45:59;;;;;;;52.95;30.83;;;;;;;11.57;74.69;101559.16;4956829;28;20055;-58
2021/11/17 02:48:41;;;;;;;50.00;31.23;;;;;;;11.55;74.89;101558.41;4955726;28;20062;-58
2021/11/17 02:51:16;;;;;;;51.63;31.17;;;;;;;11.54;74.76;101553.19;4956848;28;20074;-58
2021/11/17 02:54:14;;;;;;;53.67;32.80;;;;;;;11.53;75.11;101557.63;4956618;28;20043;-58
2021/11/17 02:56:52;;;;;;;54.33;31.27;;;;;;;11.53;74.90;101546.22;4956920;28;20392;-59
2021/11/17 03:00:05;;;;;;;51.33;31.85;;;;;;;11.51;75.07;101541.06;4944365;28;20051;-58
2021/11/17 03:02:46;;;;;;;50.55;31.50;;;;;;;11.53;75.20;101541.84;4956424;28;20071;-58
2021/11/17 03:05:40;;;;;;;49.08;30.83;;;;;;;11.55;75.04;101549.66;4956547;28;20503;-59
2021/11/17 03:08:38;;;;;;;52.67;31.90;;;;;;;11.52;75.15;101544.56;4952993;28;20055;-62
2021/11/17 03:11:29;;;;;;;52.47;31.40;;;;;;;11.52;75.30;101544.56;4956563;28;20047;-58
2021/11/17 03:14:20;;;;;;;55.40;31.58;;;;;;;11.53;75.22;101543.59;4956252;28;20052;-58
2021/11/17 03:17:01;;;;;;;51.30;30.92;;;;;;;11.53;75.49;101540.97;4956418;28;20055;-59
2021/11/17 03:19:45;;;;;;;52.65;32.13;;;;;;;11.53;75.15;101543.59;4954887;28;20043;-60
2021/11/17 03:22:15;;;;;;;50.75;32.22;;;;;;;11.50;75.45;101538.50;4956115;28;20055;-59
2021/11/17 03:25:01;;;;;;;53.05;31.85;;;;;;;11.50;75.40;101539.34;4948102;28;20408;-58
2021/11/17 03:27:51;;;;;;;52.92;32.70;;;;;;;11.53;75.27;101543.59;4955937;28;20056;-62
2021/11/17 03:30:17;;;;;;;48.97;30.55;;;;;;;11.55;75.38;101547.91;4955671;28;20058;-62
2021/11/17 03:33:12;;;;;;;49.38;29.92;;;;;;;11.55;75.43;101540.00;4955821;28;20051;-62
2021/11/17 03:36:15;;;;;;;50.03;31.33;;;;;;;11.56;75.03;101544.31;4956112;28;20127;-59
2021/11/17 03:38:42;;;;;;;51.72;30.95;;;;;;;11.58;75.43;101546.91;4945493;28;20051;-58
2021/11/17 03:41:20;;;;;;;53.42;32.35;;;;;;;11.54;75.31;101546.19;4954970;28;20088;-59
2021/11/17 03:44:38;;;;;;;53.42;32.20;;;;;;;11.55;75.21;101552.28;4955838;28;20047;-58
2021/11/17 03:47:32;;;;;;;52.05;31.25;;;;;;;11.54;75.46;101543.56;4947555;28;20039;-59
2021/11/17 03:50:23;;;;;;;52.75;31.85;;;;;;;11.56;75.25;101538.22;4955701;28;20102;-58
2021/11/17 03:53:14;;;;;;;52.13;31.95;;;;;;;11.54;75.55;101540.94;4955937;28;20053;-59
2021/11/17 03:55:53;;;;;;;52.13;30.35;;;;;;;11.52;75.69;101540.13;4941167;28;20511;-58
2021/11/17 03:58:28;;;;;;;51.40;30.88;;;;;;;11.52;75.76;101534.88;4955682;28;20412;-58
2021/11/17 04:00:58;;;;;;;51.05;33.00;;;;;;;11.54;75.33;101540.06;4938929;28;20047;-60
2021/11/17 04:03:53;;;;;;;52.30;31.88;;;;;;;11.57;75.53;101542.56;4946432;28;20051;-58
2021/11/17 04:06:25;;;;;;;52.55;32.38;;;;;;;11.58;75.59;101528.50;4943355;28;20044;-58
2021/11/17 04:09:12;;;;;;;51.80;31.77;;;;;;;11.56;75.43;101538.22;4947458;28;20049;-59
2021/11/17 04:11:54;;;;;;;53.03;31.88;;;;;;;11.56;75.63;101532.97;4939970;28;20050;-58
2021/11/17 04:14:45;;;;;;;52.47;30.10;;;;;;;11.55;75.45;101526.00;4951927;28;20054;-58
2021/11/17 04:17:54;;;;;;;53.65;32.75;;;;;;;11.54;75.47;101519.91;4951786;28;20516;-58
2021/11/17 04:21:01;;;;;;;53.13;30.98;;;;;;;11.52;75.53;101527.00;4942920;28;20073;-58
2021/11/17 04:23:28;;;;;;;49.67;31.85;;;;;;;11.49;75.85;101519.28;4942101;28;20102;-58
2021/11/17 04:26:06;;;;;;;51.58;31.60;;;;;;;11.48;75.82;101528.06;4951721;28;20053;-58
2021/11/17 04:29:15;;;;;;;52.25;31.20;;;;;;;11.48;75.84;101532.47;4940880;28;20466;-58
2021/11/17 04:31:51;;;;;;;52.22;31.90;;;;;;;11.48;75.69;101533.34;4951753;28;20047;-59
2021/11/17 04:34:18;;;;;;;49.30;31.27;;;;;;;11.48;75.70;101528.06;4951546;28;20043;-58
2021/11/17 04:37:06;;;;;;;53.58;32.47;;;;;;;11.47;75.93;101529.00;4951649;28;20489;-58
2021/11/17 04:40:10;;;;;;;54.08;32.60;;;;;;;11.47;75.92;101528.16;4951150;28;20063;-58
2021/11/17 04:43:11;;;;;;;52.78;31.83;;;;;;;11.44;75.96;101534.41;4941364;28;20098;-58
2021/11/17 04:46:06;;;;;;;47.80;30.75;;;;;;;11.46;75.78;101532.53;4941193;28;20050;-58
2021/11/17 04:48:42;;;;;;;54.75;32.17;;;;;;;11.42;75.85;101546.75;4950352;28;20065;-58
2021/11/17 04:51:46;;;;;;;56.88;33.55;;;;;;;11.40;75.95;101544.22;4951428;28;20051;-58
2021/11/17 04:54:28;;;;;;;50.72;30.50;;;;;;;11.42;76.09;101547.59;4939069;28;20082;-60
2021/11/17 04:57:20;;;;;;;50.28;30.83;;;;;;;11.45;76.05;101554.47;4951327;28;20043;-58
2021/11/17 04:59:46;;;;;;;53.03;31.90;;;;;;;11.41;76.02;101550.31;4951555;28;20051;-58
2021/11/17 05:02:16;;;;;;;57.47;32.97;;;;;;;11.40;75.93;101549.47;4950042;28;20051;-58
2021/11/17 05:04:55;;;;;;;52.05;31.80;;;;;;;11.40;76.03;101541.59;4951259;28;20455;-58
2021/11/17 05:08:20;;;;;;;53.20;32.65;;;;;;;11.38;76.33;101543.41;4951053;28;20044;-58
2021/11/17 05:10:58;;;;;;;52.88;32.20;;;;;;;11.39;76.34;101539.88;4948772;29;20055;-58
2021/11/17 05:13:58;;;;;;;54.13;33.20;;;;;;;11.41;76.19;101545.06;4948580;29;20040;-58
2021/11/17 05:16:48;;;;;;;55.53;33.97;;;;;;;11.41;76.29;101538.03;4950849;28;20043;-60
2021/11/17 05:19:17;;;;;;;53.40;33.17;;;;;;;11.39;76.21;101544.28;4948736;28;20051;-58
2021/11/17 05:22:10;;;;;;;52.67;31.65;;;;;;;11.42;76.00;101554.66;4950870;28;20078;-58
2021/11/17 05:24:45;;;;;;;54.75;33.15;;;;;;;11.44;76.07;101552.81;4950737;28;20435;-59
2021/11/17 05:27:40;;;;;;;55.35;33.03;;;;;;;11.44;75.89;101556.28;4951207;28;20068;-58
2021/11/17 05:30:24;;;;;;;55.55;32.53;;;;;;;11.47;76.01;101557.91;4948661;28;20062;-59
2021/11/17 05:33:03;;;;;;;55.53;33.03;;;;;;;11.48;76.24;101564.88;4949812;28;20054;-59
2021/11/17 05:35:54;;;;;;;52.40;31.95;;;;;;;11.44;75.84;101563.31;4950882;28;20051;-58
2021/11/17 05:38:51;;;;;;;52.97;31.98;;;;;;;11.44;76.06;101568.56;4937888;28;20098;-58
2021/11/17 05:41:46;;;;;;;52.75;31.23;;;;;;;11.46;76.16;101558.81;4950736;28;20058;-59
2021/11/17 05:44:51;;;;;;;55.75;33.38;;;;;;;11.44;76.20;101561.53;4939783;28;20055;-58
2021/11/17 05:47:27;;;;;;;54.70;33.03;;;;;;;11.41;76.01;101552.94;4939290;28;20090;-58
2021/11/17 05:50:10;;;;;;;52.63;30.35;;;;;;;11.47;75.95;101563.16;4950982;28;20047;-58
2021/11/17 05:52:45;;;;;;;55.50;31.63;;;;;;;11.41;76.15;101560.81;4950238;28;20054;-58
2021/11/17 05:55:30;;;;;;;52.78;32.03;;;;;;;11.43;76.05;101562.44;4950443;28;20748;-58
2021/11/17 05:57:59;;;;;;;52.28;30.63;;;;;;;11.38;76.26;101560.97;4950670;28;20047;-58
2021/11/17 06:00:48;;;;;;;51.28;29.48;;;;;;;11.39;76.15;101562.69;4952177;28;20053;-59
2021/11/17 06:03:26;;;;;;;52.10;31.77;;;;;;;11.34;76.22;101562.88;4954391;28;20051;-58
2021/11/17 06:05:53;;;;;;;57.20;30.60;;;;;;;11.36;76.30;101565.44;4934944;28;20043;-63
2021/11/17 06:08:19;;;;;;;52.95;30.52;;;;;;;11.36;76.12;101573.31;4947647;28;20069;-64
2021/11/17 06:10:49;;;;;;;53.70;30.38;;;;;;;11.34;76.39;101564.66;4953946;28;20047;-64
2021/11/17 06:13:16;;;;;;;50.40;30.00;;;;;;;11.34;76.37;101565.53;4954152;28;20404;-63
2021/11/17 06:15:45;;;;;;;53.67;31.35;;;;;;;11.37;76.14;101567.16;4953844;28;20110;-64
2021/11/17 06:18:24;;;;;;;52.97;31.58;;;;;;;11.37;76.26;101567.16;4953918;28;20381;-64
2021/11/17 06:21:08;;;;;;;53.05;31.15;;;;;;;11.39;75.94;101570.56;4952937;28;20484;-65
2021/11/17 06:23:49;;;;;;;52.08;30.92;;;;;;;11.35;76.17;101572.47;4948014;28;20051;-66
2021/11/17 06:26:21;;;;;;;50.22;29.60;;;;;;;11.34;76.08;101565.53;4952749;28;20441;-64
2021/11/17 06:28:52;;;;;;;52.88;30.85;;;;;;;11.32;76.32;101572.59;4954274;28;20058;-65
2021/11/17 06:31:20;;;;;;;50.22;29.25;;;;;;;11.34;76.02;101573.41;4954000;28;20039;-66
2021/11/17 06:33:47;;;;;;;52.88;30.90;;;;;;;11.36;76.33;101566.28;4953901;28;20047;-65
2021/11/17 06:36:14;;;;;;;49.38;29.50;;;;;;;11.34;76.19;101559.38;4953450;28;20051;-68
2021/11/17 06:38:40;;;;;;;54.15;30.58;;;;;;;11.40;76.17;101567.88;4943335;28;20062;-66
2021/11/17 06:41:07;;;;;;;49.03;28.60;;;;;;;11.39;76.10;101567.94;4953585;28;20051;-67
2021/11/17 06:43:34;;;;;;;53.85;30.58;;;;;;;11.37;76.23;101565.34;4947440;28;20055;-67
2021/11/17 06:46:02;;;;;;;49.90;29.52;;;;;;;11.40;76.18;101567.88;4935766;28;20099;-69
2021/11/17 06:48:30;;;;;;;49.88;29.58;;;;;;;11.40;76.19;101570.50;4949249;28;20078;-66
2021/11/17 06:50:58;;;;;;;49.97;27.75;;;;;;;11.39;76.01;101576.66;4953392;28;20484;-62
2021/11/17 06:53:27;;;;;;;47.50;29.30;;;;;;;11.37;76.40;101582.91;4952042;28;20047;-62
2021/11/17 06:55:55;;;;;;;52.50;29.15;;;;;;;11.41;76.29;101581.84;4952900;28;20039;-63
2021/11/17 06:58:22;;;;;;;50.38;29.50;;;;;;;11.35;76.21;101582.13;4952484;28;20083;-66
2021/11/17 07:00:51;;;;;;;51.15;29.95;;;;;;;11.35;76.51;101596.13;4951760;28;20047;-62
2021/11/17 07:03:18;;;;;;;46.70;27.95;;;;;;;11.39;76.23;101600.31;4953031;28;20055;-63
2021/11/17 07:05:45;;;;;;;52.15;30.20;;;;;;;11.41;76.23;101601.09;4952439;28;20039;-63
2021/11/17 07:08:12;;;;;;;48.20;29.13;;;;;;;11.34;76.45;101601.44;4952938;28;20933;-63
2021/11/17 07:10:39;;;;;;;48.55;29.20;;;;;;;11.38;76.44;101605.66;4952808;28;20051;-62
2021/11/17 07:13:07;;;;;;;51.20;29.35;;;;;;;11.40;76.60;101617.78;4951996;28;20403;-63
2021/11/17 07:15:35;;;;;;;50.97;30.63;;;;;;;11.46;76.33;101621.91;4951468;28;20488;-62
2021/11/17 07:18:03;;;;;;;47.20;29.15;;;;;;;11.50;76.01;101623.47;4952604;28;20044;-63
2021/11/17 07:20:30;;;;;;;49.03;29.33;;;;;;;11.52;76.04;101620.78;4952632;28;20098;-63
2021/11/17 07:22:57;;;;;;;50.83;30.08;;;;;;;11.48;76.34;101619.19;4951965;28;20050;-61
2021/11/17 07:25:24;;;;;;;53.17;30.50;;;;;;;11.51;76.29;101621.69;4951004;28;20062;-62
2021/11/17 07:27:52;;;;;;;49.63;29.35;;;;;;;11.54;76.25;101621.53;4937992;28;20420;-62
2021/11/17 07:30:22;;;;;;;48.15;28.90;;;;;;;11.56;76.21;101625.81;4933329;28;20456;-61
2021/11/17 07:32:50;;;;;;;45.50;28.42;;;;;;;11.54;76.26;101627.66;4941232;28;20047;-63
2021/11/17 07:35:18;;;;;;;51.83;28.58;;;;;;;11.52;76.18;101634.75;4942134;28;20103;-62
2021/11/17 07:37:46;;;;;;;50.55;29.35;;;;;;;11.53;76.29;101639.09;4952425;28;20133;-62
2021/11/17 07:40:13;;;;;;;46.47;27.95;;;;;;;11.53;76.24;101641.72;4952576;28;20496;-61
2021/11/17 07:42:40;;;;;;;47.50;28.13;;;;;;;11.51;76.19;101640.94;4942398;28;20070;-61
2021/11/17 07:45:09;;;;;;;47.58;28.55;;;;;;;11.56;76.23;101646.00;4951865;28;20051;-60
2021/11/17 07:47:36;;;;;;;49.25;28.60;;;;;;;11.54;76.07;101651.31;4951591;28;20047;-61
2021/11/17 07:50:06;;;;;;;48.85;28.90;;;;;;;11.55;76.06;101650.41;4951671;28;20057;-61
2021/11/17 07:52:36;;;;;;;50.33;29.63;;;;;;;11.57;76.29;101656.44;4944433;28;20516;-62
2021/11/17 07:55:10;;;;;;;49.40;29.17;;;;;;;11.58;76.34;101654.69;4935212;28;20044;-61
2021/11/17 07:57:43;;;;;;;48.65;28.10;;;;;;;11.55;76.14;101655.66;4951230;28;20059;-60
2021/11/17 08:00:22;;;;;;;48.83;29.27;;;;;;;11.59;76.32;101657.22;4946370;28;20043;-62
2021/11/17 08:02:50;;;;;;;46.45;28.60;;;;;;;11.61;76.23;101657.16;4933584;28;20055;-63
2021/11/17 08:05:20;;;;;;;51.45;29.52;;;;;;;11.67;75.96;101656.88;4932493;28;20055;-64
2021/11/17 08:07:47;;;;;;;46.88;28.77;;;;;;;11.69;75.99;101659.41;4934132;28;20511;-62
2021/11/17 08:10:18;;;;;;;47.78;27.98;;;;;;;11.65;76.11;101660.50;4944796;28;20504;-63
2021/11/17 08:12:45;;;;;;;49.00;27.95;;;;;;;11.71;76.03;101661.06;4946623;28;20507;-66
2021/11/17 08:15:12;;;;;;;46.97;27.77;;;;;;;11.73;75.98;101660.97;4932521;28;20043;-63
2021/11/17 08:17:40;;;;;;;54.83;29.90;;;;;;;11.80;76.01;101664.19;4937885;28;20047;-61
2021/11/17 08:20:12;;;;;;;49.17;27.63;;;;;;;11.74;75.85;101666.19;4944338;28;20055;-61
2021/11/17 08:22:43;;;;;;;49.50;29.27;;;;;;;11.77;75.81;101665.19;4937443;28;20098;-61
2021/11/17 08:25:11;;;;;;;46.15;26.58;;;;;;;11.75;75.69;101670.50;4933595;28;20048;-62
2021/11/17 08:27:38;;;;;;;47.08;27.20;;;;;;;11.75;76.05;101673.13;4933311;28;20114;-62
2021/11/17 08:30:10;;;;;;;47.25;28.00;;;;;;;11.74;76.24;101678.47;4930690;28;20110;-61
2021/11/17 08:32:38;;;;;;;46.33;27.35;;;;;;;11.75;75.94;101670.50;4935339;28;20056;-61
2021/11/17 08:35:10;;;;;;;46.83;26.98;;;;;;;11.74;75.99;101674.06;4943577;28;20076;-62
2021/11/17 08:37:37;;;;;;;44.25;25.73;;;;;;;11.77;76.02;101678.34;4947261;28;20525;-62
2021/11/17 08:40:10;;;;;;;44.58;26.60;;;;;;;11.83;75.91;101671.91;4949675;28;20602;-62
2021/11/17 08:42:37;;;;;;;46.03;26.83;;;;;;;11.82;75.86;101668.44;4948676;28;20093;-61
2021/11/17 08:45:06;;;;;;;43.47;26.52;;;;;;;11.91;75.64;101662.75;4949971;28;20448;-63
2021/11/17 08:47:34;;;;;;;44.60;27.40;;;;;;;11.82;75.96;101668.44;4950804;28;20709;-62
2021/11/17 08:50:01;;;;;;;44.15;25.80;;;;;;;11.92;75.94;101669.72;4950497;28;20164;-61
2021/11/17 08:52:27;;;;;;;45.92;26.38;;;;;;;11.98;75.57;101671.22;4950918;28;20051;-62
2021/11/17 08:54:55;;;;;;;44.53;26.85;;;;;;;11.99;75.72;101670.31;4949844;28;20492;-63
2021/11/17 08:57:22;;;;;;;46.08;26.70;;;;;;;12.02;75.97;101664.03;4950271;28;20043;-61
2021/11/17 08:59:51;;;;;;;42.50;26.23;;;;;;;12.03;75.68;101663.97;4951002;28;20054;-62
2021/11/17 09:02:18;;;;;;;46.13;27.08;;;;;;;12.02;75.78;101666.66;4951039;28;20053;-61
2021/11/17 09:04:45;;;;;;;43.60;25.88;;;;;;;12.04;75.71;101670.09;4950724;28;20138;-62
2021/11/17 09:07:13;;;;;;;46.13;26.40;;;;;;;12.05;76.05;101666.53;4950196;28;20487;-62
2021/11/17 09:09:41;;;;;;;46.80;27.48;;;;;;;12.06;75.86;101676.97;4950254;28;20059;-66
2021/11/17 09:12:09;;;;;;;41.50;25.27;;;;;;;12.08;75.83;101676.91;4949778;28;20543;-62
2021/11/17 09:14:37;;;;;;;47.30;27.33;;;;;;;12.01;75.81;101678.13;4948661;28;20476;-61
2021/11/17 09:17:05;;;;;;;45.17;27.08;;;;;;;12.02;76.05;101682.44;4950215;28;20051;-61
2021/11/17 09:19:32;;;;;;;49.05;26.20;;;;;;;12.06;75.86;101676.09;4950371;28;20507;-64
2021/11/17 09:21:59;;;;;;;47.08;27.30;;;;;;;12.10;75.81;101672.44;4949949;28;20051;-62
2021/11/17 09:24:26;;;;;;;51.03;27.35;;;;;;;12.13;75.92;101669.63;4950193;28;20047;-61
2021/11/17 09:26:54;;;;;;;47.72;27.00;;;;;;;12.12;75.79;101672.34;4950464;28;20051;-62
2021/11/17 09:29:22;;;;;;;45.30;26.20;;;;;;;12.07;75.87;101676.06;4949072;28;20084;-61
2021/11/17 09:31:49;;;;;;;45.03;26.05;;;;;;;12.09;76.22;101674.19;4950505;28;20051;-61
2021/11/17 09:34:17;;;;;;;47.63;28.17;;;;;;;12.12;75.98;101680.25;4950650;28;20046;-62
2021/11/17 09:36:44;;;;;;;46.78;26.38;;;;;;;12.09;76.11;101682.09;4956402;28;20062;-61
2021/11/17 09:39:12;;;;;;;49.00;28.73;;;;;;;12.14;75.88;101679.25;4956399;28;20071;-61
2021/11/17 09:41:43;;;;;;;44.70;26.70;;;;;;;12.12;76.14;101677.63;4956872;28;20047;-62
2021/11/17 09:44:16;;;;;;;47.80;27.00;;;;;;;12.06;76.41;101676.97;4956282;28;20058;-63
2021/11/17 09:46:45;;;;;;;46.67;25.83;;;;;;;12.13;76.09;101681.97;4955968;28;20480;-62
2021/11/17 09:49:19;;;;;;;47.25;27.95;;;;;;;12.16;75.84;101682.63;4956279;28;20051;-62
2021/11/17 09:51:53;;;;;;;47.88;28.02;;;;;;;12.12;76.20;101675.81;4956585;28;20051;-62
2021/11/17 09:54:31;;;;;;;45.40;27.83;;;;;;;12.13;75.93;101684.59;4956258;28;20534;-62
2021/11/17 09:57:20;;;;;;;46.65;25.90;;;;;;;12.21;76.15;101687.69;4956484;28;20368;-62
2021/11/17 09:59:56;;;;;;;41.13;25.60;;;;;;;12.25;75.95;101686.59;4956398;28;20200;-61
2021/11/17 10:02:37;;;;;;;45.30;26.85;;;;;;;12.25;75.82;101682.22;4955231;28;20047;-61
2021/11/17 10:05:16;;;;;;;45.22;26.30;;;;;;;12.23;75.75;101685.84;4956375;28;20043;-62
2021/11/17 10:11:35;;;;;;;45.03;26.33;;;;;;;12.31;75.70;101696.00;4942988;28;20069;-62
2021/11/17 10:14:10;;;;;;;43.78;25.38;;;;;;;12.35;75.49;101700.19;4953863;28;20051;-61
2021/11/17 10:16:38;;;;;;;44.45;27.10;;;;;;;12.40;75.48;101692.91;4946313;28;20055;-61
2021/11/17 10:19:28;;;;;;;43.08;24.55;;;;;;;12.47;75.29;101688.19;4955499;28;20492;-61
2021/11/17 10:22:10;;;;;;;42.90;25.50;;;;;;;12.48;75.36;101682.00;4956267;28;20050;-61
2021/11/17 10:25:04;;;;;;;38.90;23.60;;;;;;;12.51;75.14;101677.44;4955938;28;20057;-61
2021/11/17 10:27:32;;;;;;;42.50;25.58;;;;;;;12.63;74.91;101683.00;4956046;28;20051;-62
2021/11/17 10:30:18;;;;;;;41.53;24.95;;;;;;;12.64;74.94;101680.31;4956602;28;20055;-62
2021/11/17 10:33:04;;;;;;;40.85;25.33;;;;;;;12.68;74.73;101679.22;4956534;28;20051;-62
2021/11/17 10:35:35;;;;;;;39.63;24.73;;;;;;;12.69;74.60;101682.72;4954989;28;20043;-61
2021/11/17 10:38:26;;;;;;;43.38;25.63;;;;;;;12.76;74.66;101678.84;4955765;28;20051;-61
2021/11/17 10:41:02;;;;;;;38.75;24.33;;;;;;;12.78;74.28;101678.75;4956027;28;20117;-60
2021/11/17 10:43:35;;;;;;;49.65;26.75;;;;;;;12.82;74.20;101667.13;4955432;28;20465;-60
2021/11/17 10:46:04;;;;;;;51.38;27.55;;;;;;;12.89;74.18;101665.91;4954404;28;20117;-61
2021/11/17 10:48:50;;;;;;;46.15;26.30;;;;;;;12.87;74.26;101665.09;4950304;28;20098;-61
2021/11/17 10:51:32;;;;;;;45.40;25.92;;;;;;;12.98;73.88;101662.78;4944431;28;20066;-61
2021/11/17 10:54:05;;;;;;;40.90;24.77;;;;;;;13.05;73.68;101653.63;4951950;28;20043;-61
2021/11/17 10:56:37;;;;;;;40.40;25.52;;;;;;;13.09;73.79;101656.09;4952678;28;20061;-60
2021/11/17 10:59:05;;;;;;;44.33;26.40;;;;;;;13.13;73.61;101660.25;4952847;28;20050;-60
2021/11/17 11:01:40;;;;;;;42.58;25.38;;;;;;;13.17;73.41;101656.56;4952863;28;20051;-59
2021/11/17 11:04:17;;;;;;;42.30;25.27;;;;;;;13.23;73.36;101657.06;4953075;28;20040;-60
2021/11/17 11:06:53;;;;;;;43.10;26.70;;;;;;;13.39;72.91;101651.88;4952298;28;20058;-59
2021/11/17 11:09:27;;;;;;;41.50;25.35;;;;;;;13.50;72.57;101653.91;4952490;28;20098;-60
2021/11/17 11:11:55;;;;;;;41.35;25.58;;;;;;;13.65;72.13;101644.31;4952075;28;20059;-60
2021/11/17 11:14:30;;;;;;;39.25;24.95;;;;;;;13.68;71.94;101651.19;4952181;28;20117;-60
2021/11/17 11:17:02;;;;;;;43.25;25.30;;;;;;;13.75;71.71;101643.78;4952682;28;20452;-60
2021/11/17 11:19:32;;;;;;;43.22;25.95;;;;;;;13.80;71.77;101645.25;4952564;28;20070;-60
2021/11/17 11:22:00;;;;;;;43.83;24.98;;;;;;;13.85;71.58;101648.47;4952378;28;20047;-60
2021/11/17 11:24:43;;;;;;;40.65;23.63;;;;;;;13.94;71.16;101633.94;4952562;28;20039;-60
2021/11/17 11:27:16;;;;;;;38.28;23.55;;;;;;;14.00;71.19;101645.91;4951064;28;20555;-60
2021/11/17 11:30:07;;;;;;;40.95;24.10;;;;;;;14.10;70.88;101630.41;4952381;28;20491;-60
2021/11/17 11:32:33;;;;;;;39.33;23.88;;;;;;;14.11;71.11;101638.22;4952079;28;20416;-60
2021/11/17 11:35:01;;;;;;;38.83;24.45;;;;;;;14.11;71.02;101630.31;4952573;28;20063;-60
2021/11/17 11:37:31;;;;;;;39.35;24.17;;;;;;;14.03;70.89;101628.13;4952206;28;20416;-60
2021/11/17 11:40:07;;;;;;;37.08;23.55;;;;;;;14.03;71.03;101625.47;4951954;28;20047;-60
2021/11/17 11:42:39;;;;;;;;;;;;;;;14.01;70.90;101629.13;4952644;28;20472;-60
2021/11/17 11:45:09;;;;;;;36.92;22.90;;;;;;;14.04;70.84;101627.19;4950823;28;19973;-60
2021/11/17 11:47:44;;;;;;;37.42;23.02;;;;;;;14.06;70.47;101615.69;4952405;28;20108;-60
2021/11/17 11:50:35;;;;;;;;;;;;;;;14.06;70.26;101621.81;4951914;28;20066;-60
2021/11/17 11:53:20;;;;;;;41.13;22.85;;;;;;;14.01;70.29;101622.06;4949100;28;20454;-60
2021/11/17 11:55:50;;;;;;;37.53;24.00;;;;;;;13.99;70.32;101623.97;4938476;28;20058;-60
2021/11/17 11:58:25;;;;;;;39.72;24.13;;;;;;;13.88;70.93;101632.47;4951367;28;20130;-59
2021/11/17 12:01:04;;;;;;;;;;;;;;;13.82;71.13;101630.16;4951463;28;20138;-60
2021/11/17 12:03:34;;;;;;;33.90;22.50;;;;;;;13.78;70.80;101633.09;4951204;28;19985;-60
2021/11/17 12:06:04;;;;;;;37.00;22.80;;;;;;;13.71;71.38;101629.91;4951394;28;20051;-60
2021/11/17 12:08:48;;;;;;;34.92;23.02;;;;;;;13.66;71.70;101624.03;4951250;28;20464;-60
2021/11/17 12:11:19;;;;;;;37.63;23.65;;;;;;;13.65;71.56;101624.97;4951664;28;20043;-60
2021/11/17 12:14:06;;;;;;;37.85;23.60;;;;;;;13.62;71.75;101627.81;4949642;28;20138;-60
2021/11/17 12:16:41;;;;;;;35.88;23.02;;;;;;;13.58;71.77;101623.63;4941605;28;20052;-60
2021/11/17 12:19:14;;;;;;;37.72;23.98;;;;;;;13.51;72.10;101629.25;4950493;28;20051;-60
2021/11/17 12:21:41;;;;;;;35.92;23.63;;;;;;;13.51;72.12;101629.25;4949500;28;20047;-60
2021/11/17 12:24:20;;;;;;;40.75;23.83;;;;;;;13.48;71.94;101626.75;4939299;28;20051;-60
2021/11/17 12:27:07;;;;;;;36.22;23.25;;;;;;;13.46;72.30;101627.78;4931730;28;20085;-60
2021/11/17 12:29:36;;;;;;;39.42;24.08;;;;;;;13.42;71.96;101629.75;4944021;28;20062;-60
2021/11/17 12:32:18;;;;;;;35.28;23.65;;;;;;;13.39;72.44;101629.91;4941592;28;20051;-60
2021/11/17 12:35:17;;;;;;;38.10;23.00;;;;;;;13.38;72.38;101639.63;4943832;28;20062;-61
2021/11/17 12:37:49;;;;;;;38.65;24.65;;;;;;;13.30;72.41;101639.13;4943811;28;20051;-61
2021/11/17 12:40:53;;;;;;;39.28;25.08;;;;;;;13.26;72.41;101637.59;4932562;28;20055;-60
2021/11/17 12:43:37;;;;;;;37.60;23.92;;;;;;;13.23;72.56;101635.97;4941998;28;20047;-63
2021/11/17 12:46:24;;;;;;;37.95;24.10;;;;;;;13.23;72.49;101632.50;4946369;28;20476;-60
2021/11/17 12:49:14;;;;;;;41.63;23.63;;;;;;;13.29;72.36;101621.59;4937877;28;20050;-60
2021/11/17 12:51:54;;;;;;;37.10;23.70;;;;;;;13.33;72.60;101615.25;4943610;28;20043;-59
2021/11/17 12:54:33;;;;;;;38.92;25.85;;;;;;;13.45;72.48;101610.28;4947240;28;20490;-61
2021/11/17 12:57:02;;;;;;;37.63;25.15;;;;;;;13.42;72.27;101603.41;4942851;28;20102;-64
2021/11/17 12:59:32;;;;;;;40.95;24.55;;;;;;;13.43;72.44;101602.44;4947397;28;20050;-60
2021/11/17 13:02:02;;;;;;;41.17;25.02;;;;;;;13.44;72.42;101606.78;4947257;28;20067;-62
2021/11/17 13:04:38;;;;;;;39.30;25.73;;;;;;;13.42;72.68;101613.94;4949321;28;20155;-62
2021/11/17 13:07:09;;;;;;;39.55;24.83;;;;;;;13.39;72.97;101609.69;4947251;28;20058;-62
2021/11/17 13:09:41;;;;;;;38.95;24.35;;;;;;;13.36;72.81;101611.59;4948352;28;20498;-61
2021/11/17 13:12:20;;;;;;;38.83;25.45;;;;;;;13.37;73.00;101605.44;4948578;28;20062;-63
2021/11/17 13:14:46;;;;;;;42.65;26.85;;;;;;;13.39;72.71;101604.41;4949713;28;20054;-61
2021/11/17 13:17:18;;;;;;;39.17;24.85;;;;;;;13.49;72.68;101604.75;4938487;28;20444;-61
2021/11/17 13:19:51;;;;;;;40.45;25.45;;;;;;;13.55;72.34;101606.19;4949900;28;20051;-61
2021/11/17 13:22:26;;;;;;;45.60;26.30;;;;;;;13.68;72.00;101609.00;4948997;28;20062;-61
2021/11/17 13:25:13;;;;;;;41.50;26.67;;;;;;;13.66;71.93;101609.09;4938261;28;20473;-61
2021/11/17 13:27:46;;;;;;;39.95;24.90;;;;;;;13.68;72.21;101609.84;4948449;28;20484;-60
2021/11/17 13:30:20;;;;;;;42.28;25.88;;;;;;;13.67;72.09;101609.94;4949492;28;20054;-60
2021/11/17 13:32:50;;;;;;;39.22;25.42;;;;;;;13.63;72.39;101613.69;4949855;28;20113;-60
2021/11/17 13:35:31;;;;;;;42.38;27.65;;;;;;;13.60;72.35;101613.84;4949195;28;20051;-61
2021/11/17 13:38:22;;;;;;;42.97;27.30;;;;;;;13.63;72.63;101618.97;4949417;28;20053;-61
2021/11/17 13:41:06;;;;;;;44.85;28.48;;;;;;;13.65;72.29;101604.75;4942664;28;20051;-61
2021/11/17 13:43:39;;;;;;;46.28;27.80;;;;;;;13.61;72.50;101607.63;4948310;28;20127;-62
2021/11/17 13:46:13;;;;;;;42.55;27.75;;;;;;;13.65;72.40;101609.16;4948401;28;20126;-61
2021/11/17 13:48:41;;;;;;;49.80;28.83;;;;;;;13.67;72.69;101607.28;4949079;28;20139;-59
2021/11/17 13:51:10;;;;;;;44.80;28.10;;;;;;;13.83;72.26;101607.28;4949189;28;20099;-60
2021/11/17 13:53:37;;;;;;;43.78;27.52;;;;;;;13.90;72.13;101605.16;4939202;28;20047;-67
2021/11/17 13:56:10;;;;;;;41.90;27.25;;;;;;;13.99;72.09;101601.97;4943503;28;20041;-65
2021/11/17 13:58:38;;;;;;;47.38;29.67;;;;;;;14.08;71.72;101606.75;4938565;28;20047;-66
2021/11/17 14:01:06;;;;;;;48.58;28.95;;;;;;;14.10;71.75;101610.13;4941230;28;20515;-66
2021/11/17 14:03:34;;;;;;;46.45;30.55;;;;;;;14.03;71.76;101603.53;4941984;28;20051;-63
2021/11/17 14:06:04;;;;;;;48.90;30.02;;;;;;;14.00;71.90;101611.59;4934539;28;20052;-64
2021/11/17 14:08:32;;;;;;;48.92;31.65;;;;;;;13.96;71.82;101607.44;4944188;28;20070;-60
2021/11/17 14:11:00;;;;;;;51.80;30.65;;;;;;;14.05;71.82;101612.19;4943551;28;20138;-63
2021/11/17 14:13:28;;;;;;;51.13;30.95;;;;;;;14.07;71.74;101607.69;4939361;28;20496;-60
2021/11/17 14:15:55;;;;;;;55.35;33.22;;;;;;;14.20;71.45;101599.91;4937142;28;20179;-61
2021/11/17 14:18:23;;;;;;;57.20;31.65;;;;;;;14.45;70.86;101599.31;4946860;28;20051;-62
2021/11/17 14:20:50;;;;;;;52.58;32.40;;;;;;;14.34;71.33;101602.56;4946547;28;20067;-61
2021/11/17 14:23:17;;;;;;;55.40;32.65;;;;;;;14.25;71.36;101600.47;4946594;28;20102;-62